Time,TemperatureF,DewpointF,PressureIn,WindDirection,WindDirectionDegrees,WindSpeedMPH,WindSpeedGustMPH,Humidity,HourlyPrecipIn,Conditions,Clouds,dailyrainin,SoftwareType,DateUTC
2013-10-20 00:01:00,53.4,47.1,29.89,SW,214,1.0,2.0,79,0.00,NA,NA,0.00,WeatherLink_script,2013-10-20 04:01:00,
2013-10-20 00:02:00,53.4,47.1,29.89,SW,214,2.2,4.0,79,0.00,NA,NA,0.00,WeatherLink_script,2013-10-20 04:02:00,
2013-10-20 00:03:00,53.4,47.1,29.89,SW,222,1.1,4.0,79,0.00,NA,NA,0.00,WeatherLink_script,2013-10-20 04:03:00,
2013-10-20 00:08:00,53.4,47.1,29.89,WSW,255,0.5,1.0,79,0.00,NA,NA,0.00,WeatherLink_script,2013-10-20 04:08:00,
2013-10-20 00:13:00,53.3,46.9,29.89,WNW,297,0.1,1.0,79,0.00,NA,NA,0.00,WeatherLink_script,2013-10-20 04:13:00,
2013-10-20 00:18:00,53.3,46.9,29.90,WNW,297,0.4,2.0,79,0.00,NA,NA,0.00,WeatherLink_script,2013-10-20 04:18:00,
2013-10-20 00:19:00,53.2,46.9,29.90,WNW,297,0.6,3.0,79,0.00,NA,NA,0.00,WeatherLink_script,2013-10-20 04:19:00,
2013-10-20 00:24:00,53.2,46.8,29.90,WNW,297,0.0,0.0,79,0.00,NA,NA,0.00,WeatherLink_script,2013-10-20 04:24:00,
2013-10-20 00:28:00,53.0,46.7,29.90,WNW,297,0.4,1.0,79,0.00,NA,NA,0.00,WeatherLink_script,2013-10-20 04:28:00,
2013-10-20 00:33:00,53.0,46.7,29.90,WNW,297,0.1,1.0,79,0.00,NA,NA,0.00,WeatherLink_script,2013-10-20 04:33:00,
2013-10-20 00:38:00,53.0,46.7,29.90,WNW,297,0.6,2.0,79,0.00,NA,NA,0.00,WeatherLink_script,2013-10-20 04:38:00,
2013-10-20 00:43:00,53.0,46.7,29.90,WNW,297,0.1,1.0,79,0.00,NA,NA,0.00,WeatherLink_script,2013-10-20 04:43:00,
2013-10-20 00:48:00,52.9,47.5,29.90,WNW,297,0.4,1.0,82,0.00,NA,NA,0.00,WeatherLink_script,2013-10-20 04:48:00,
2013-10-20 00:53:00,52.8,46.8,29.90,WNW,291,1.0,2.0,80,0.00,NA,NA,0.00,WeatherLink_script,2013-10-20 04:53:00,
2013-10-20 00:58:00,52.7,46.7,29.91,WNW,291,0.0,0.0,80,0.00,NA,NA,0.00,WeatherLink_script,2013-10-20 04:58:00,
2013-10-20 01:03:00,52.7,46.7,29.91,WNW,291,0.0,0.0,80,0.00,NA,NA,0.00,WeatherLink_script,2013-10-20 05:03:00,
2013-10-20 01:08:00,52.6,46.6,29.91,WNW,291,0.0,0.0,80,0.00,NA,NA,0.00,WeatherLink_script,2013-10-20 05:08:00,
2013-10-20 01:13:00,52.3,46.4,29.91,WNW,291,0.0,0.0,80,0.00,NA,NA,0.00,WeatherLink_script,2013-10-20 05:13:00,
2013-10-20 01:18:00,52.0,46.0,29.92,WNW,291,0.5,2.0,80,0.00,NA,NA,0.00,WeatherLink_script,2013-10-20 05:18:00,
2013-10-20 01:23:00,51.8,46.2,29.92,WNW,294,1.4,3.0,81,0.00,NA,NA,0.00,WeatherLink_script,2013-10-20 05:23:00,
2013-10-20 01:28:00,51.7,45.7,29.91,WNW,303,0.4,1.0,80,0.00,NA,NA,0.00,WeatherLink_script,2013-10-20 05:28:00,
2013-10-20 01:33:00,51.7,45.4,29.92,WSW,245,0.6,1.0,79,0.00,NA,NA,0.00,WeatherLink_script,2013-10-20 05:33:00,
2013-10-20 01:38:00,51.4,44.8,29.92,WSW,245,1.0,2.0,78,0.00,NA,NA,0.00,WeatherLink_script,2013-10-20 05:38:00,
2013-10-20 01:43:00,51.3,44.4,29.93,West,263,1.9,4.0,77,0.00,NA,NA,0.00,WeatherLink_script,2013-10-20 05:43:00,
2013-10-20 01:48:00,51.1,44.8,29.93,SW,226,1.5,2.0,79,0.00,NA,NA,0.00,WeatherLink_script,2013-10-20 05:48:00,
2013-10-20 01:53:00,50.9,44.0,29.93,SW,229,1.2,3.0,77,0.00,NA,NA,0.00,WeatherLink_script,2013-10-20 05:53:00,
2013-10-20 01:58:00,50.6,43.0,29.93,WNW,287,0.7,3.0,75,0.00,NA,NA,0.00,WeatherLink_script,2013-10-20 05:58:00,
2013-10-20 02:03:00,50.5,42.9,29.93,West,280,2.3,3.0,75,0.00,NA,NA,0.00,WeatherLink_script,2013-10-20 06:03:00,
2013-10-20 02:08:00,50.2,42.3,29.93,WNW,285,0.9,3.0,74,0.00,NA,NA,0.00,WeatherLink_script,2013-10-20 06:08:00,
2013-10-20 02:13:00,50.1,41.7,29.93,West,260,2.2,4.0,73,0.00,NA,NA,0.00,WeatherLink_script,2013-10-20 06:13:00,
2013-10-20 02:18:00,49.8,41.9,29.94,West,266,0.1,1.0,74,0.00,NA,NA,0.00,WeatherLink_script,2013-10-20 06:18:00,
2013-10-20 02:23:00,49.5,41.6,29.94,West,265,1.1,2.0,74,0.00,NA,NA,0.00,WeatherLink_script,2013-10-20 06:23:00,
2013-10-20 02:28:00,49.3,41.0,29.94,West,264,0.8,2.0,73,0.00,NA,NA,0.00,WeatherLink_script,2013-10-20 06:28:00,
2013-10-20 02:33:00,49.0,40.8,29.95,WNW,285,1.4,4.0,73,0.00,NA,NA,0.00,WeatherLink_script,2013-10-20 06:33:00,
2013-10-20 02:38:00,48.9,41.0,29.95,WNW,285,0.4,2.0,74,0.00,NA,NA,0.00,WeatherLink_script,2013-10-20 06:38:00,
2013-10-20 02:43:00,48.6,40.3,29.95,WNW,285,0.5,2.0,73,0.00,NA,NA,0.00,WeatherLink_script,2013-10-20 06:43:00,
2013-10-20 02:48:00,48.6,40.7,29.94,WNW,284,0.5,2.0,74,0.00,NA,NA,0.00,WeatherLink_script,2013-10-20 06:48:00,
2013-10-20 02:53:00,48.3,40.0,29.95,WNW,284,1.1,3.0,73,0.00,NA,NA,0.00,WeatherLink_script,2013-10-20 06:53:00,
2013-10-20 02:58:00,48.2,39.6,29.95,WNW,284,0.5,2.0,72,0.00,NA,NA,0.00,WeatherLink_script,2013-10-20 06:58:00,
2013-10-20 03:03:00,48.1,39.5,29.95,WNW,284,0.1,1.0,72,0.00,NA,NA,0.00,WeatherLink_script,2013-10-20 07:03:00,
2013-10-20 03:08:00,48.0,39.4,29.95,WNW,284,0.3,2.0,72,0.00,NA,NA,0.00,WeatherLink_script,2013-10-20 07:08:00,
2013-10-20 03:13:00,47.7,39.1,29.95,WNW,284,0.5,2.0,72,0.00,NA,NA,0.00,WeatherLink_script,2013-10-20 07:13:00,
2013-10-20 03:18:00,47.7,39.8,29.96,WNW,288,0.4,2.0,74,0.00,NA,NA,0.00,WeatherLink_script,2013-10-20 07:18:00,
2013-10-20 03:23:00,47.8,41.9,29.96,WNW,288,0.1,1.0,80,0.00,NA,NA,0.00,WeatherLink_script,2013-10-20 07:23:00,
2013-10-20 03:28:00,47.7,40.5,29.95,WNW,288,0.1,1.0,76,0.00,NA,NA,0.00,WeatherLink_script,2013-10-20 07:28:00,
2013-10-20 03:33:00,47.4,39.2,29.96,WNW,289,0.1,1.0,73,0.00,NA,NA,0.00,WeatherLink_script,2013-10-20 07:33:00,
2013-10-20 03:38:00,47.3,39.1,29.95,WNW,289,0.0,0.0,73,0.00,NA,NA,0.00,WeatherLink_script,2013-10-20 07:38:00,
2013-10-20 03:43:00,47.0,38.4,29.95,WNW,289,0.0,0.0,72,0.00,NA,NA,0.00,WeatherLink_script,2013-10-20 07:43:00,
2013-10-20 03:48:00,46.8,38.6,29.96,WNW,289,0.0,0.0,73,0.00,NA,NA,0.00,WeatherLink_script,2013-10-20 07:48:00,
2013-10-20 03:53:00,46.5,38.0,29.96,WNW,288,0.0,0.0,72,0.00,NA,NA,0.00,WeatherLink_script,2013-10-20 07:53:00,
2013-10-20 03:58:00,46.5,38.0,29.96,WNW,288,0.0,0.0,72,0.00,NA,NA,0.00,WeatherLink_script,2013-10-20 07:58:00,
2013-10-20 04:03:00,46.4,37.9,29.96,WNW,289,0.0,0.0,72,0.00,NA,NA,0.00,WeatherLink_script,2013-10-20 08:03:00,
2013-10-20 04:08:00,46.2,38.7,29.96,WNW,289,0.0,0.0,75,0.00,NA,NA,0.00,WeatherLink_script,2013-10-20 08:08:00,
2013-10-20 04:13:00,46.1,38.3,29.96,WNW,289,0.8,2.0,74,0.00,NA,NA,0.00,WeatherLink_script,2013-10-20 08:13:00,
2013-10-20 04:18:00,46.1,39.6,29.96,WNW,289,0.5,3.0,78,0.00,NA,NA,0.00,WeatherLink_script,2013-10-20 08:18:00,
2013-10-20 04:23:00,46.0,38.5,29.97,North,359,1.4,3.0,75,0.00,NA,NA,0.00,WeatherLink_script,2013-10-20 08:23:00,
2013-10-20 04:28:00,46.1,37.9,29.97,North,359,1.3,3.0,73,0.00,NA,NA,0.00,WeatherLink_script,2013-10-20 08:28:00,
2013-10-20 04:33:00,46.1,37.6,29.97,North,359,1.4,3.0,72,0.00,NA,NA,0.00,WeatherLink_script,2013-10-20 08:33:00,
2013-10-20 04:38:00,46.2,37.7,29.97,North,359,0.5,1.0,72,0.00,NA,NA,0.00,WeatherLink_script,2013-10-20 08:38:00,
2013-10-20 04:43:00,46.1,37.6,29.97,North,359,1.2,3.0,72,0.00,NA,NA,0.00,WeatherLink_script,2013-10-20 08:43:00,
2013-10-20 04:48:00,46.0,37.8,29.98,NNW,340,1.4,3.0,73,0.00,NA,NA,0.00,WeatherLink_script,2013-10-20 08:48:00,
2013-10-20 04:53:00,45.8,37.7,29.97,NNW,340,1.4,3.0,73,0.00,NA,NA,0.00,WeatherLink_script,2013-10-20 08:53:00,
2013-10-20 04:58:00,45.7,37.9,29.97,NNW,340,0.7,2.0,74,0.00,NA,NA,0.00,WeatherLink_script,2013-10-20 08:58:00,
2013-10-20 05:03:00,45.4,36.9,29.97,North,359,1.5,3.0,72,0.00,NA,NA,0.00,WeatherLink_script,2013-10-20 09:03:00,
2013-10-20 05:08:00,45.2,36.7,29.98,North,4,0.4,2.0,72,0.00,NA,NA,0.00,WeatherLink_script,2013-10-20 09:08:00,
2013-10-20 05:13:00,44.9,36.8,29.98,North,0,0.4,1.0,73,0.00,NA,NA,0.00,WeatherLink_script,2013-10-20 09:13:00,
2013-10-20 05:18:00,44.6,36.9,29.98,North,0,0.0,0.0,74,0.00,NA,NA,0.00,WeatherLink_script,2013-10-20 09:18:00,
2013-10-20 05:23:00,44.3,36.6,29.98,North,0,0.9,2.0,74,0.00,NA,NA,0.00,WeatherLink_script,2013-10-20 09:23:00,
2013-10-20 05:28:00,44.1,36.7,29.99,North,0,1.1,3.0,75,0.00,NA,NA,0.00,WeatherLink_script,2013-10-20 09:28:00,
2013-10-20 05:33:00,43.9,35.8,29.99,North,0,1.1,2.0,73,0.00,NA,NA,0.00,WeatherLink_script,2013-10-20 09:33:00,
2013-10-20 05:38:00,44.0,35.2,29.98,North,0,2.1,4.0,71,0.00,NA,NA,0.00,WeatherLink_script,2013-10-20 09:38:00,
2013-10-20 05:43:00,44.3,35.5,29.98,North,359,2.1,4.0,71,0.00,NA,NA,0.00,WeatherLink_script,2013-10-20 09:43:00,
2013-10-20 05:48:00,44.6,35.8,29.98,North,359,2.1,3.0,71,0.00,NA,NA,0.00,WeatherLink_script,2013-10-20 09:48:00,
2013-10-20 05:53:00,44.7,35.9,29.99,North,359,0.9,2.0,71,0.00,NA,NA,0.00,WeatherLink_script,2013-10-20 09:53:00,
2013-10-20 05:58:00,44.7,35.5,29.99,North,359,1.7,3.0,70,0.00,NA,NA,0.00,WeatherLink_script,2013-10-20 09:58:00,
2013-10-20 06:03:00,44.6,35.4,29.99,North,359,0.6,2.0,70,0.00,NA,NA,0.00,WeatherLink_script,2013-10-20 10:03:00,
2013-10-20 06:08:00,44.4,35.6,29.99,North,359,0.3,1.0,71,0.00,NA,NA,0.00,WeatherLink_script,2013-10-20 10:08:00,
2013-10-20 06:13:00,44.2,35.8,30.00,North,359,0.2,2.0,72,0.00,NA,NA,0.00,WeatherLink_script,2013-10-20 10:13:00,
2013-10-20 06:18:00,44.1,35.3,30.00,North,359,0.9,3.0,71,0.00,NA,NA,0.00,WeatherLink_script,2013-10-20 10:18:00,
2013-10-20 06:23:00,44.0,35.6,30.00,North,359,1.4,3.0,72,0.00,NA,NA,0.00,WeatherLink_script,2013-10-20 10:23:00,
2013-10-20 06:28:00,43.9,35.5,30.00,North,359,1.4,3.0,72,0.00,NA,NA,0.00,WeatherLink_script,2013-10-20 10:28:00,
2013-10-20 06:33:00,43.7,34.9,30.00,North,359,0.5,2.0,71,0.00,NA,NA,0.00,WeatherLink_script,2013-10-20 10:33:00,
2013-10-20 06:38:00,43.7,35.3,30.00,North,0,0.1,1.0,72,0.00,NA,NA,0.00,WeatherLink_script,2013-10-20 10:38:00,
2013-10-20 06:43:00,43.5,35.4,30.00,North,359,0.6,2.0,73,0.00,NA,NA,0.00,WeatherLink_script,2013-10-20 10:43:00,
2013-10-20 06:48:00,43.3,35.2,30.01,North,359,0.2,1.0,73,0.00,NA,NA,0.00,WeatherLink_script,2013-10-20 10:48:00,
2013-10-20 06:53:00,43.2,35.1,30.01,North,359,0.2,1.0,73,0.00,NA,NA,0.00,WeatherLink_script,2013-10-20 10:53:00,
2013-10-20 06:58:00,43.0,35.3,30.01,North,0,0.0,0.0,74,0.00,NA,NA,0.00,WeatherLink_script,2013-10-20 10:58:00,
2013-10-20 07:03:00,42.9,34.9,30.01,North,359,0.0,0.0,73,0.00,NA,NA,0.00,WeatherLink_script,2013-10-20 11:03:00,
2013-10-20 07:08:00,42.8,34.4,30.01,North,359,0.0,0.0,72,0.00,NA,NA,0.00,WeatherLink_script,2013-10-20 11:08:00,
2013-10-20 07:13:00,42.7,34.7,30.01,North,0,0.2,1.0,73,0.00,NA,NA,0.00,WeatherLink_script,2013-10-20 11:13:00,
2013-10-20 07:18:00,42.6,34.6,30.01,North,359,0.0,0.0,73,0.00,NA,NA,0.00,WeatherLink_script,2013-10-20 11:18:00,
2013-10-20 07:23:00,42.4,34.7,30.01,North,359,0.1,1.0,74,0.00,NA,NA,0.00,WeatherLink_script,2013-10-20 11:23:00,
2013-10-20 07:28:00,42.3,34.6,30.01,North,359,0.0,0.0,74,0.00,NA,NA,0.00,WeatherLink_script,2013-10-20 11:28:00,
2013-10-20 07:33:00,42.1,34.4,30.02,North,359,0.0,0.0,74,0.00,NA,NA,0.00,WeatherLink_script,2013-10-20 11:33:00,
2013-10-20 07:38:00,42.0,34.7,30.02,North,359,0.0,0.0,75,0.00,NA,NA,0.00,WeatherLink_script,2013-10-20 11:38:00,
2013-10-20 07:43:00,42.0,35.0,30.02,North,357,0.0,0.0,76,0.00,NA,NA,0.00,WeatherLink_script,2013-10-20 11:43:00,
2013-10-20 07:48:00,42.0,35.3,30.02,North,357,0.0,0.0,77,0.00,NA,NA,0.00,WeatherLink_script,2013-10-20 11:48:00,
2013-10-20 07:53:00,41.9,35.2,30.02,NNE,21,0.3,2.0,77,0.00,NA,NA,0.00,WeatherLink_script,2013-10-20 11:53:00,
2013-10-20 07:58:00,41.9,34.9,30.03,NNE,19,0.3,2.0,76,0.00,NA,NA,0.00,WeatherLink_script,2013-10-20 11:58:00,
2013-10-20 08:03:00,42.0,35.0,30.03,NNW,341,0.6,2.0,76,0.00,NA,NA,0.00,WeatherLink_script,2013-10-20 12:03:00,
2013-10-20 08:08:00,42.0,35.0,30.03,NNW,342,0.6,2.0,76,0.00,NA,NA,0.00,WeatherLink_script,2013-10-20 12:08:00,
2013-10-20 08:13:00,42.1,35.1,30.03,NNW,331,1.2,3.0,76,0.00,NA,NA,0.00,WeatherLink_script,2013-10-20 12:13:00,
2013-10-20 08:18:00,42.4,35.1,30.03,WNW,284,1.5,3.0,75,0.00,NA,NA,0.00,WeatherLink_script,2013-10-20 12:18:00,
2013-10-20 08:23:00,42.7,35.3,30.03,NNW,347,0.6,3.0,75,0.00,NA,NA,0.00,WeatherLink_script,2013-10-20 12:23:00,
2013-10-20 08:28:00,42.9,35.2,30.03,NW,311,0.7,3.0,74,0.00,NA,NA,0.00,WeatherLink_script,2013-10-20 12:28:00,
2013-10-20 08:33:00,43.0,35.6,30.03,North,353,0.5,1.0,75,0.00,NA,NA,0.00,WeatherLink_script,2013-10-20 12:33:00,
2013-10-20 08:38:00,43.3,34.9,30.04,SSW,211,2.0,4.0,72,0.00,NA,NA,0.00,WeatherLink_script,2013-10-20 12:38:00,
2013-10-20 08:43:00,43.6,35.9,30.04,SSW,206,1.6,3.0,74,0.00,NA,NA,0.00,WeatherLink_script,2013-10-20 12:43:00,
2013-10-20 08:48:00,44.0,34.9,30.05,SSW,196,0.4,2.0,70,0.00,NA,NA,0.00,WeatherLink_script,2013-10-20 12:48:00,
2013-10-20 08:53:00,44.2,35.1,30.05,SSW,196,0.2,1.0,70,0.00,NA,NA,0.00,WeatherLink_script,2013-10-20 12:53:00,
2013-10-20 08:58:00,44.4,34.9,30.06,SSW,196,0.0,0.0,69,0.00,NA,NA,0.00,WeatherLink_script,2013-10-20 12:58:00,
2013-10-20 09:03:00,44.4,36.0,30.06,SSW,196,0.5,1.0,72,0.00,NA,NA,0.00,WeatherLink_script,2013-10-20 13:03:00,
2013-10-20 09:08:00,44.6,35.8,30.05,SSW,197,0.7,2.0,71,0.00,NA,NA,0.00,WeatherLink_script,2013-10-20 13:08:00,
2013-10-20 09:13:00,44.8,35.6,30.05,North,0,1.9,4.0,70,0.00,NA,NA,0.00,WeatherLink_script,2013-10-20 13:13:00,
2013-10-20 09:18:00,45.1,35.9,30.05,WNW,286,1.3,4.0,70,0.00,NA,NA,0.00,WeatherLink_script,2013-10-20 13:18:00,
2013-10-20 09:24:00,45.5,36.7,30.06,WNW,286,0.3,1.0,71,0.00,NA,NA,0.00,WeatherLink_script,2013-10-20 13:24:00,
2013-10-20 09:29:00,46.0,36.8,30.05,NNE,23,1.6,3.0,70,0.00,NA,NA,0.00,WeatherLink_script,2013-10-20 13:29:00,
2013-10-20 09:34:00,46.4,36.0,30.05,NW,319,3.1,5.0,67,0.00,NA,NA,0.00,WeatherLink_script,2013-10-20 13:34:00,
2013-10-20 09:39:00,47.0,37.0,30.06,West,268,1.3,3.0,68,0.00,NA,NA,0.00,WeatherLink_script,2013-10-20 13:39:00,
2013-10-20 09:44:00,47.4,37.7,30.05,West,269,1.6,4.0,69,0.00,NA,NA,0.00,WeatherLink_script,2013-10-20 13:44:00,
2013-10-20 09:49:00,47.7,36.9,30.05,North,2,3.2,6.0,66,0.00,NA,NA,0.00,WeatherLink_script,2013-10-20 13:49:00,
2013-10-20 09:54:00,48.4,38.3,30.05,NW,310,1.8,3.0,68,0.00,NA,NA,0.00,WeatherLink_script,2013-10-20 13:54:00,
2013-10-20 09:59:00,49.1,37.1,30.06,West,260,3.8,9.0,63,0.00,NA,NA,0.00,WeatherLink_script,2013-10-20 13:59:00,
2013-10-20 10:04:00,49.7,36.4,30.06,SSW,211,0.6,3.0,60,0.00,NA,NA,0.00,WeatherLink_script,2013-10-20 14:04:00,
2013-10-20 10:09:00,50.6,36.8,30.07,SSW,192,0.1,1.0,59,0.00,NA,NA,0.00,WeatherLink_script,2013-10-20 14:09:00,
2013-10-20 10:14:00,51.1,36.0,30.07,SSW,203,2.8,4.0,56,0.00,NA,NA,0.00,WeatherLink_script,2013-10-20 14:14:00,
2013-10-20 10:19:00,51.7,36.6,30.08,SSW,203,1.1,3.0,56,0.00,NA,NA,0.00,WeatherLink_script,2013-10-20 14:19:00,
2013-10-20 10:24:00,52.2,36.6,30.07,WNW,282,1.1,3.0,55,0.00,NA,NA,0.00,WeatherLink_script,2013-10-20 14:24:00,
2013-10-20 10:29:00,52.7,37.0,30.07,North,3,0.8,2.0,55,0.00,NA,NA,0.00,WeatherLink_script,2013-10-20 14:29:00,
2013-10-20 10:34:00,53.0,37.7,30.07,NW,308,0.6,1.0,56,0.00,NA,NA,0.00,WeatherLink_script,2013-10-20 14:34:00,
2013-10-20 10:39:00,53.4,37.7,30.07,WNW,303,0.0,0.0,55,0.00,NA,NA,0.00,WeatherLink_script,2013-10-20 14:39:00,
2013-10-20 10:44:00,53.9,38.6,30.07,WNW,301,0.7,2.0,56,0.00,NA,NA,0.00,WeatherLink_script,2013-10-20 14:44:00,
2013-10-20 10:49:00,54.4,38.1,30.07,West,265,0.7,2.0,54,0.00,NA,NA,0.00,WeatherLink_script,2013-10-20 14:49:00,
2013-10-20 10:54:00,54.9,37.1,30.07,SW,225,0.5,3.0,51,0.00,NA,NA,0.00,WeatherLink_script,2013-10-20 14:54:00,
2013-10-20 10:59:00,55.3,38.0,30.08,West,273,1.5,3.0,52,0.00,NA,NA,0.00,WeatherLink_script,2013-10-20 14:59:00,
2013-10-20 11:04:00,55.5,38.2,30.08,West,280,1.6,3.0,52,0.00,NA,NA,0.00,WeatherLink_script,2013-10-20 15:04:00,
2013-10-20 11:09:00,55.8,37.9,30.07,WNW,288,1.5,3.0,51,0.00,NA,NA,0.00,WeatherLink_script,2013-10-20 15:09:00,
2013-10-20 11:14:00,55.9,37.5,30.07,WNW,288,1.6,3.0,50,0.00,NA,NA,0.00,WeatherLink_script,2013-10-20 15:14:00,
2013-10-20 11:19:00,56.1,38.7,30.07,ENE,65,0.9,2.0,52,0.00,NA,NA,0.00,WeatherLink_script,2013-10-20 15:19:00,
2013-10-20 11:24:00,56.4,36.4,30.08,West,275,1.2,3.0,47,0.00,NA,NA,0.00,WeatherLink_script,2013-10-20 15:24:00,
2013-10-20 11:29:00,56.4,34.8,30.08,East,95,1.6,3.0,44,0.00,NA,NA,0.00,WeatherLink_script,2013-10-20 15:29:00,
2013-10-20 11:34:00,56.5,36.5,30.08,SW,216,1.1,3.0,47,0.00,NA,NA,0.00,WeatherLink_script,2013-10-20 15:34:00,
2013-10-20 11:39:00,57.0,38.5,30.08,WSW,249,0.3,1.0,50,0.00,NA,NA,0.00,WeatherLink_script,2013-10-20 15:39:00,
2013-10-20 11:44:00,57.4,37.3,30.07,NNW,334,1.4,3.0,47,0.00,NA,NA,0.00,WeatherLink_script,2013-10-20 15:44:00,
2013-10-20 11:49:00,57.7,37.1,30.07,NW,325,0.6,3.0,46,0.00,NA,NA,0.00,WeatherLink_script,2013-10-20 15:49:00,
2013-10-20 11:54:00,58.0,36.8,30.08,NW,304,2.2,3.0,45,0.00,NA,NA,0.00,WeatherLink_script,2013-10-20 15:54:00,
2013-10-20 11:59:00,58.2,38.1,30.08,NW,306,1.0,2.0,47,0.00,NA,NA,0.00,WeatherLink_script,2013-10-20 15:59:00,
2013-10-20 12:04:00,58.4,36.5,30.08,WNW,301,0.8,3.0,44,0.00,NA,NA,0.00,WeatherLink_script,2013-10-20 16:04:00,
2013-10-20 12:09:00,58.5,36.7,30.07,WNW,301,0.4,2.0,44,0.00,NA,NA,0.00,WeatherLink_script,2013-10-20 16:09:00,
2013-10-20 12:14:00,58.5,37.3,30.08,WNW,300,0.3,2.0,45,0.00,NA,NA,0.00,WeatherLink_script,2013-10-20 16:14:00,
2013-10-20 12:19:00,59.0,38.2,30.08,WNW,297,0.0,0.0,46,0.00,NA,NA,0.00,WeatherLink_script,2013-10-20 16:19:00,
2013-10-20 12:24:00,59.4,37.5,30.07,NNE,21,1.9,4.0,44,0.00,NA,NA,0.00,WeatherLink_script,2013-10-20 16:24:00,
2013-10-20 12:29:00,59.4,38.1,30.07,NNE,22,0.0,0.0,45,0.00,NA,NA,0.00,WeatherLink_script,2013-10-20 16:29:00,
2013-10-20 12:34:00,59.7,38.3,30.07,NNE,22,1.7,3.0,45,0.00,NA,NA,0.00,WeatherLink_script,2013-10-20 16:34:00,
2013-10-20 12:39:00,60.3,40.5,30.07,NNE,20,0.4,2.0,48,0.00,NA,NA,0.00,WeatherLink_script,2013-10-20 16:39:00,
2013-10-20 12:44:00,60.0,34.3,30.07,ESE,109,2.7,5.0,38,0.00,NA,NA,0.00,WeatherLink_script,2013-10-20 16:44:00,
2013-10-20 12:45:00,59.8,34.8,30.07,ENE,69,1.2,3.0,39,0.00,NA,NA,0.00,WeatherLink_script,2013-10-20 16:45:00,
2013-10-20 12:50:00,59.8,38.4,30.07,NE,46,0.9,3.0,45,0.00,NA,NA,0.00,WeatherLink_script,2013-10-20 16:50:00,
2013-10-20 12:55:00,60.3,35.2,30.08,NNE,21,0.3,1.0,39,0.00,NA,NA,0.00,WeatherLink_script,2013-10-20 16:55:00,
2013-10-20 13:00:00,60.7,38.1,30.08,North,5,2.2,4.0,43,0.00,NA,NA,0.00,WeatherLink_script,2013-10-20 17:00:00,
2013-10-20 13:05:00,61.3,38.6,30.07,WSW,242,1.5,3.0,43,0.00,NA,NA,0.00,WeatherLink_script,2013-10-20 17:05:00,
2013-10-20 13:10:00,61.6,36.4,30.07,WSW,241,0.9,2.0,39,0.00,NA,NA,0.00,WeatherLink_script,2013-10-20 17:10:00,
2013-10-20 13:15:00,61.3,39.2,30.06,ENE,62,0.2,1.0,44,0.00,NA,NA,0.00,WeatherLink_script,2013-10-20 17:15:00,
2013-10-20 13:20:00,61.4,37.5,30.06,ENE,59,0.7,2.0,41,0.00,NA,NA,0.00,WeatherLink_script,2013-10-20 17:20:00,
2013-10-20 13:25:00,61.7,36.5,30.06,ENE,60,0.6,2.0,39,0.00,NA,NA,0.00,WeatherLink_script,2013-10-20 17:25:00,
2013-10-20 13:30:00,61.7,37.1,30.06,East,92,0.2,2.0,40,0.00,NA,NA,0.00,WeatherLink_script,2013-10-20 17:30:00,
2013-10-20 13:35:00,61.9,37.9,30.06,ENE,76,1.1,3.0,41,0.00,NA,NA,0.00,WeatherLink_script,2013-10-20 17:35:00,
2013-10-20 13:40:00,62.0,38.0,30.06,ENE,75,0.7,1.0,41,0.00,NA,NA,0.00,WeatherLink_script,2013-10-20 17:40:00,
2013-10-20 13:45:00,62.4,37.8,30.05,West,272,0.4,2.0,40,0.00,NA,NA,0.00,WeatherLink_script,2013-10-20 17:45:00,
2013-10-20 13:50:00,62.7,38.0,30.05,West,267,0.8,2.0,40,0.00,NA,NA,0.00,WeatherLink_script,2013-10-20 17:50:00,
2013-10-20 13:55:00,62.8,36.1,30.05,WSW,256,0.0,0.0,37,0.00,NA,NA,0.00,WeatherLink_script,2013-10-20 17:55:00,
2013-10-20 14:00:00,63.0,37.6,30.05,WSW,250,1.5,3.0,39,0.00,NA,NA,0.00,WeatherLink_script,2013-10-20 18:00:00,
2013-10-20 14:05:00,62.7,36.7,30.05,WNW,284,0.7,2.0,38,0.00,NA,NA,0.00,WeatherLink_script,2013-10-20 18:05:00,
2013-10-20 14:10:00,63.0,37.0,30.04,WNW,284,0.0,0.0,38,0.00,NA,NA,0.00,WeatherLink_script,2013-10-20 18:10:00,
2013-10-20 14:15:00,63.5,38.7,30.05,WNW,284,0.6,2.0,40,0.00,NA,NA,0.00,WeatherLink_script,2013-10-20 18:15:00,
2013-10-20 14:20:00,63.6,35.4,30.04,ESE,122,1.7,4.0,35,0.00,NA,NA,0.00,WeatherLink_script,2013-10-20 18:20:00,
2013-10-20 14:25:00,63.8,37.7,30.04,East,93,0.1,1.0,38,0.00,NA,NA,0.00,WeatherLink_script,2013-10-20 18:25:00,
2013-10-20 14:30:00,64.3,37.5,30.04,East,93,0.2,1.0,37,0.00,NA,NA,0.00,WeatherLink_script,2013-10-20 18:30:00,
2013-10-20 14:35:00,64.3,40.1,30.04,East,89,0.8,2.0,41,0.00,NA,NA,0.00,WeatherLink_script,2013-10-20 18:35:00,
2013-10-20 14:40:00,64.3,38.8,30.04,East,89,0.0,0.0,39,0.00,NA,NA,0.00,WeatherLink_script,2013-10-20 18:40:00,
2013-10-20 14:46:00,64.6,38.4,30.04,East,89,0.7,2.0,38,0.00,NA,NA,0.00,WeatherLink_script,2013-10-20 18:46:00,
2013-10-20 14:51:00,64.6,37.7,30.03,West,260,0.4,2.0,37,0.00,NA,NA,0.00,WeatherLink_script,2013-10-20 18:51:00,
2013-10-20 14:56:00,64.8,39.2,30.04,SW,229,0.0,0.0,39,0.00,NA,NA,0.00,WeatherLink_script,2013-10-20 18:56:00,
2013-10-20 15:01:00,64.9,35.8,30.03,SW,229,0.2,1.0,34,0.00,NA,NA,0.00,WeatherLink_script,2013-10-20 19:01:00,
2013-10-20 15:06:00,64.6,39.7,30.03,SW,236,1.0,2.0,40,0.00,NA,NA,0.00,WeatherLink_script,2013-10-20 19:06:00,
2013-10-20 15:11:00,64.5,40.9,30.03,SW,236,0.0,0.0,42,0.00,NA,NA,0.00,WeatherLink_script,2013-10-20 19:11:00,
2013-10-20 15:16:00,64.9,38.7,30.03,SW,236,0.1,1.0,38,0.00,NA,NA,0.00,WeatherLink_script,2013-10-20 19:16:00,
2013-10-20 15:21:00,65.0,38.1,30.03,WSW,248,4.3,6.0,37,0.00,NA,NA,0.00,WeatherLink_script,2013-10-20 19:21:00,
2013-10-20 15:26:00,64.6,36.4,30.03,WNW,295,1.0,2.0,35,0.00,NA,NA,0.00,WeatherLink_script,2013-10-20 19:26:00,
2013-10-20 15:31:00,63.7,37.6,30.03,WSW,244,1.9,4.0,38,0.00,NA,NA,0.00,WeatherLink_script,2013-10-20 19:31:00,
2013-10-20 15:36:00,63.1,35.7,30.03,SSE,147,1.1,2.0,36,0.00,NA,NA,0.00,WeatherLink_script,2013-10-20 19:36:00,
2013-10-20 15:41:00,63.0,37.0,30.03,ESE,102,0.0,0.0,38,0.00,NA,NA,0.00,WeatherLink_script,2013-10-20 19:41:00,
2013-10-20 15:46:00,63.0,37.6,30.03,WNW,288,1.9,4.0,39,0.00,NA,NA,0.00,WeatherLink_script,2013-10-20 19:46:00,
2013-10-20 15:51:00,62.5,39.7,30.03,NE,48,1.7,4.0,43,0.00,NA,NA,0.00,WeatherLink_script,2013-10-20 19:51:00,
2013-10-20 15:56:00,62.5,37.8,30.03,ENE,60,1.0,2.0,40,0.00,NA,NA,0.00,WeatherLink_script,2013-10-20 19:56:00,
2013-10-20 16:01:00,62.7,38.6,30.03,ENE,60,0.5,2.0,41,0.00,NA,NA,0.00,WeatherLink_script,2013-10-20 20:01:00,
2013-10-20 16:06:00,62.5,36.5,30.03,SE,139,0.1,1.0,38,0.00,NA,NA,0.00,WeatherLink_script,2013-10-20 20:06:00,
2013-10-20 16:11:00,62.5,38.5,30.03,SE,139,0.0,0.0,41,0.00,NA,NA,0.00,WeatherLink_script,2013-10-20 20:11:00,
2013-10-20 16:16:00,62.7,36.7,30.03,South,191,0.8,2.0,38,0.00,NA,NA,0.00,WeatherLink_script,2013-10-20 20:16:00,
2013-10-20 16:21:00,62.3,36.4,30.04,South,190,0.1,1.0,38,0.00,NA,NA,0.00,WeatherLink_script,2013-10-20 20:21:00,
2013-10-20 16:26:00,62.4,36.5,30.04,South,190,1.6,4.0,38,0.00,NA,NA,0.00,WeatherLink_script,2013-10-20 20:26:00,
2013-10-20 16:31:00,62.0,36.1,30.03,North,357,1.5,3.0,38,0.00,NA,NA,0.00,WeatherLink_script,2013-10-20 20:31:00,
2013-10-20 16:36:00,61.7,35.8,30.03,NNE,23,0.6,2.0,38,0.00,NA,NA,0.00,WeatherLink_script,2013-10-20 20:36:00,
2013-10-20 16:41:00,61.6,38.3,30.03,NNE,23,0.0,0.0,42,0.00,NA,NA,0.00,WeatherLink_script,2013-10-20 20:41:00,
2013-10-20 16:46:00,61.5,38.2,30.03,NNE,23,0.0,0.0,42,0.00,NA,NA,0.00,WeatherLink_script,2013-10-20 20:46:00,
2013-10-20 16:51:00,61.4,36.9,30.03,NNE,23,0.0,0.0,40,0.00,NA,NA,0.00,WeatherLink_script,2013-10-20 20:51:00,
2013-10-20 16:56:00,61.1,38.4,30.03,NNE,23,0.0,0.0,43,0.00,NA,NA,0.00,WeatherLink_script,2013-10-20 20:56:00,
2013-10-20 17:01:00,60.9,36.4,30.03,NNE,23,0.1,1.0,40,0.00,NA,NA,0.00,WeatherLink_script,2013-10-20 21:01:00,
2013-10-20 17:06:00,60.5,37.3,30.03,NNE,23,0.0,0.0,42,0.00,NA,NA,0.00,WeatherLink_script,2013-10-20 21:06:00,
2013-10-20 17:11:00,60.2,37.6,30.04,NNE,23,0.0,0.0,43,0.00,NA,NA,0.00,WeatherLink_script,2013-10-20 21:11:00,
2013-10-20 17:16:00,59.8,38.5,30.04,NNE,23,0.2,2.0,45,0.00,NA,NA,0.00,WeatherLink_script,2013-10-20 21:16:00,
2013-10-20 17:21:00,59.6,38.8,30.04,NNE,23,0.0,0.0,46,0.00,NA,NA,0.00,WeatherLink_script,2013-10-20 21:21:00,
2013-10-20 17:26:00,59.1,38.4,30.04,NNE,23,0.0,0.0,46,0.00,NA,NA,0.00,WeatherLink_script,2013-10-20 21:26:00,
2013-10-20 17:31:00,58.8,38.7,30.04,NNE,23,0.0,0.0,47,0.00,NA,NA,0.00,WeatherLink_script,2013-10-20 21:31:00,
2013-10-20 17:36:00,58.4,40.3,30.04,NNE,23,0.0,0.0,51,0.00,NA,NA,0.00,WeatherLink_script,2013-10-20 21:36:00,
2013-10-20 17:41:00,58.0,40.0,30.04,NNE,23,0.0,0.0,51,0.00,NA,NA,0.00,WeatherLink_script,2013-10-20 21:41:00,
2013-10-20 17:46:00,57.4,40.4,30.04,NNE,23,0.0,0.0,53,0.00,NA,NA,0.00,WeatherLink_script,2013-10-20 21:46:00,
2013-10-20 17:51:00,57.0,41.0,30.04,NNE,23,0.0,0.0,55,0.00,NA,NA,0.00,WeatherLink_script,2013-10-20 21:51:00,
2013-10-20 17:56:00,56.5,41.0,30.04,NNE,23,0.0,0.0,56,0.00,NA,NA,0.00,WeatherLink_script,2013-10-20 21:56:00,
2013-10-20 18:01:00,55.9,40.5,30.05,NNE,23,0.0,0.0,56,0.00,NA,NA,0.00,WeatherLink_script,2013-10-20 22:01:00,
2013-10-20 18:06:00,55.6,40.6,30.05,NNE,23,0.0,0.0,57,0.00,NA,NA,0.00,WeatherLink_script,2013-10-20 22:06:00,
2013-10-20 18:11:00,55.2,40.7,30.05,NNE,23,0.0,0.0,58,0.00,NA,NA,0.00,WeatherLink_script,2013-10-20 22:11:00,
2013-10-20 18:16:00,54.9,40.8,30.05,NNE,23,0.0,0.0,59,0.00,NA,NA,0.00,WeatherLink_script,2013-10-20 22:16:00,
2013-10-20 18:21:00,54.4,40.4,30.05,NNE,23,0.0,0.0,59,0.00,NA,NA,0.00,WeatherLink_script,2013-10-20 22:21:00,
2013-10-20 18:26:00,54.2,40.6,30.05,NNE,23,0.0,0.0,60,0.00,NA,NA,0.00,WeatherLink_script,2013-10-20 22:26:00,
2013-10-20 18:31:00,53.9,40.4,30.05,NNE,23,0.1,1.0,60,0.00,NA,NA,0.00,WeatherLink_script,2013-10-20 22:31:00,
2013-10-20 18:36:00,53.8,40.2,30.05,NNE,23,0.4,1.0,60,0.00,NA,NA,0.00,WeatherLink_script,2013-10-20 22:36:00,
2013-10-20 18:41:00,53.7,40.1,30.05,NNE,23,0.3,1.0,60,0.00,NA,NA,0.00,WeatherLink_script,2013-10-20 22:41:00,
2013-10-20 18:46:00,53.6,40.1,30.05,NNE,23,0.5,1.0,60,0.00,NA,NA,0.00,WeatherLink_script,2013-10-20 22:46:00,
2013-10-20 18:51:00,53.6,40.9,30.05,NNE,23,0.6,2.0,62,0.00,NA,NA,0.00,WeatherLink_script,2013-10-20 22:51:00,
2013-10-20 18:56:00,53.4,40.7,30.05,NNE,23,0.0,0.0,62,0.00,NA,NA,0.00,WeatherLink_script,2013-10-20 22:56:00,
2013-10-20 19:01:00,53.3,41.0,30.05,NNE,23,0.7,3.0,63,0.00,NA,NA,0.00,WeatherLink_script,2013-10-20 23:01:00,
2013-10-20 19:06:00,53.1,40.9,30.06,NNE,23,0.4,2.0,63,0.00,NA,NA,0.00,WeatherLink_script,2013-10-20 23:06:00,
2013-10-20 19:11:00,53.0,41.2,30.06,NNE,23,0.3,1.0,64,0.00,NA,NA,0.00,WeatherLink_script,2013-10-20 23:11:00,
2013-10-20 19:16:00,52.8,40.5,30.06,NNE,23,1.2,2.0,63,0.00,NA,NA,0.00,WeatherLink_script,2013-10-20 23:16:00,
2013-10-20 19:21:00,52.7,40.9,30.06,NNE,23,0.6,2.0,64,0.00,NA,NA,0.00,WeatherLink_script,2013-10-20 23:21:00,
2013-10-20 19:26:00,52.6,40.3,30.06,NNE,23,0.7,1.0,63,0.00,NA,NA,0.00,WeatherLink_script,2013-10-20 23:26:00,
2013-10-20 19:31:00,52.6,41.2,30.06,NNE,23,1.2,2.0,65,0.00,NA,NA,0.00,WeatherLink_script,2013-10-20 23:31:00,
2013-10-20 19:36:00,52.4,40.6,30.06,NNE,23,1.1,2.0,64,0.00,NA,NA,0.00,WeatherLink_script,2013-10-20 23:36:00,
2013-10-20 19:41:00,52.3,40.5,30.07,NNE,23,1.0,2.0,64,0.00,NA,NA,0.00,WeatherLink_script,2013-10-20 23:41:00,
2013-10-20 19:46:00,52.1,40.3,30.07,NNE,23,0.4,2.0,64,0.00,NA,NA,0.00,WeatherLink_script,2013-10-20 23:46:00,
2013-10-20 19:51:00,52.1,40.3,30.07,NNE,23,0.8,2.0,64,0.00,NA,NA,0.00,WeatherLink_script,2013-10-20 23:51:00,
2013-10-20 19:56:00,52.1,39.9,30.07,NNE,23,0.3,1.0,63,0.00,NA,NA,0.00,WeatherLink_script,2013-10-20 23:56:00,
2013-10-20 20:01:00,52.0,39.8,30.07,NNE,23,0.3,1.0,63,0.00,NA,NA,0.00,WeatherLink_script,2013-10-21 00:01:00,
2013-10-20 20:06:00,52.0,39.8,30.07,NNE,23,0.5,1.0,63,0.00,NA,NA,0.00,WeatherLink_script,2013-10-21 00:06:00,
2013-10-20 20:11:00,52.0,40.2,30.07,NNE,23,0.9,3.0,64,0.00,NA,NA,0.00,WeatherLink_script,2013-10-21 00:11:00,
2013-10-20 20:16:00,52.0,40.2,30.07,NNE,23,1.2,3.0,64,0.00,NA,NA,0.00,WeatherLink_script,2013-10-21 00:16:00,
2013-10-20 20:21:00,52.0,39.8,30.07,NNE,23,0.6,2.0,63,0.00,NA,NA,0.00,WeatherLink_script,2013-10-21 00:21:00,
2013-10-20 20:26:00,51.8,39.6,30.07,NNE,23,0.6,2.0,63,0.00,NA,NA,0.00,WeatherLink_script,2013-10-21 00:26:00,
2013-10-20 20:31:00,51.8,39.6,30.08,NNE,19,0.3,1.0,63,0.00,NA,NA,0.00,WeatherLink_script,2013-10-21 00:31:00,
2013-10-20 20:36:00,51.7,39.5,30.08,NNE,17,0.6,2.0,63,0.00,NA,NA,0.00,WeatherLink_script,2013-10-21 00:36:00,
2013-10-20 20:41:00,51.6,39.4,30.08,NNE,17,0.6,1.0,63,0.00,NA,NA,0.00,WeatherLink_script,2013-10-21 00:41:00,
2013-10-20 20:46:00,51.5,38.9,30.08,NNE,16,0.0,0.0,62,0.00,NA,NA,0.00,WeatherLink_script,2013-10-21 00:46:00,
2013-10-20 20:51:00,51.4,38.8,30.08,NNE,16,0.1,1.0,62,0.00,NA,NA,0.00,WeatherLink_script,2013-10-21 00:51:00,
2013-10-20 20:56:00,51.2,38.2,30.08,NNE,16,0.0,0.0,61,0.00,NA,NA,0.00,WeatherLink_script,2013-10-21 00:56:00,
2013-10-20 21:01:00,51.1,38.5,30.08,NNE,16,0.0,0.0,62,0.00,NA,NA,0.00,WeatherLink_script,2013-10-21 01:01:00,
2013-10-20 21:06:00,50.8,39.1,30.08,NNE,16,0.0,0.0,64,0.00,NA,NA,0.00,WeatherLink_script,2013-10-21 01:06:00,
2013-10-20 21:11:00,50.5,38.4,30.08,NNE,16,0.0,0.0,63,0.00,NA,NA,0.00,WeatherLink_script,2013-10-21 01:11:00,
2013-10-20 21:16:00,50.2,38.1,30.09,NNE,16,0.0,0.0,63,0.00,NA,NA,0.00,WeatherLink_script,2013-10-21 01:16:00,
2013-10-20 21:21:00,49.9,38.3,30.09,NNE,16,0.3,1.0,64,0.00,NA,NA,0.00,WeatherLink_script,2013-10-21 01:21:00,
2013-10-20 21:26:00,49.9,38.2,30.09,NNE,16,0.1,1.0,64,0.00,NA,NA,0.00,WeatherLink_script,2013-10-21 01:26:00,
2013-10-20 21:31:00,50.0,38.7,30.09,NNE,16,0.0,0.0,65,0.00,NA,NA,0.00,WeatherLink_script,2013-10-21 01:31:00,
2013-10-20 21:36:00,50.1,38.4,30.09,NNE,16,0.0,0.0,64,0.00,NA,NA,0.00,WeatherLink_script,2013-10-21 01:36:00,
2013-10-20 21:41:00,50.1,38.4,30.09,NNE,16,0.0,0.0,64,0.00,NA,NA,0.00,WeatherLink_script,2013-10-21 01:41:00,
2013-10-20 21:46:00,50.1,38.4,30.10,NNE,16,0.0,0.0,64,0.00,NA,NA,0.00,WeatherLink_script,2013-10-21 01:46:00,
2013-10-20 21:51:00,49.9,38.2,30.10,NNE,16,0.0,0.0,64,0.00,NA,NA,0.00,WeatherLink_script,2013-10-21 01:51:00,
2013-10-20 21:56:00,49.8,38.5,30.09,NNE,16,0.0,0.0,65,0.00,NA,NA,0.00,WeatherLink_script,2013-10-21 01:56:00,
2013-10-20 22:01:00,49.7,38.4,30.10,NNE,16,0.0,0.0,65,0.00,NA,NA,0.00,WeatherLink_script,2013-10-21 02:01:00,
2013-10-20 22:06:00,49.6,38.3,30.10,NNE,16,0.0,0.0,65,0.00,NA,NA,0.00,WeatherLink_script,2013-10-21 02:06:00,
2013-10-20 22:11:00,49.5,38.2,30.10,NNE,16,0.0,0.0,65,0.00,NA,NA,0.00,WeatherLink_script,2013-10-21 02:11:00,
2013-10-20 22:16:00,49.3,38.0,30.10,NNE,16,0.0,0.0,65,0.00,NA,NA,0.00,WeatherLink_script,2013-10-21 02:16:00,
2013-10-20 22:21:00,49.3,38.0,30.10,NNE,16,0.0,0.0,65,0.00,NA,NA,0.00,WeatherLink_script,2013-10-21 02:21:00,
2013-10-20 22:26:00,49.2,37.9,30.10,NNE,16,0.0,0.0,65,0.00,NA,NA,0.00,WeatherLink_script,2013-10-21 02:26:00,
2013-10-20 22:31:00,49.0,37.7,30.10,NNE,16,0.0,0.0,65,0.00,NA,NA,0.00,WeatherLink_script,2013-10-21 02:31:00,
2013-10-20 22:36:00,48.9,38.1,30.10,NNE,16,0.0,0.0,66,0.00,NA,NA,0.00,WeatherLink_script,2013-10-21 02:36:00,
2013-10-20 22:41:00,48.6,37.8,30.10,NNE,16,0.0,0.0,66,0.00,NA,NA,0.00,WeatherLink_script,2013-10-21 02:41:00,
2013-10-20 22:46:00,48.6,37.8,30.10,NNE,16,0.0,0.0,66,0.00,NA,NA,0.00,WeatherLink_script,2013-10-21 02:46:00,
2013-10-20 22:51:00,48.6,37.4,30.10,NNE,16,0.0,0.0,65,0.00,NA,NA,0.00,WeatherLink_script,2013-10-21 02:51:00,
2013-10-20 22:56:00,48.6,37.4,30.10,NNE,16,0.0,0.0,65,0.00,NA,NA,0.00,WeatherLink_script,2013-10-21 02:56:00,
2013-10-20 23:01:00,48.6,37.4,30.10,NNE,16,0.0,0.0,65,0.00,NA,NA,0.00,WeatherLink_script,2013-10-21 03:01:00,
2013-10-20 23:06:00,48.6,37.4,30.10,NNE,16,0.0,0.0,65,0.00,NA,NA,0.00,WeatherLink_script,2013-10-21 03:06:00,
2013-10-20 23:11:00,48.5,37.7,30.11,NNE,16,0.0,0.0,66,0.00,NA,NA,0.00,WeatherLink_script,2013-10-21 03:11:00,
2013-10-20 23:16:00,48.4,37.9,30.10,NNE,16,0.0,0.0,67,0.00,NA,NA,0.00,WeatherLink_script,2013-10-21 03:16:00,
2013-10-20 23:21:00,48.3,37.9,30.11,NNE,16,0.0,0.0,67,0.00,NA,NA,0.00,WeatherLink_script,2013-10-21 03:21:00,
2013-10-20 23:26:00,48.3,38.2,30.10,NNE,16,0.0,0.0,68,0.00,NA,NA,0.00,WeatherLink_script,2013-10-21 03:26:00,
2013-10-20 23:31:00,48.2,38.9,30.10,NNE,16,0.0,0.0,70,0.00,NA,NA,0.00,WeatherLink_script,2013-10-21 03:31:00,
2013-10-20 23:36:00,48.2,38.9,30.10,NNE,16,0.0,0.0,70,0.00,NA,NA,0.00,WeatherLink_script,2013-10-21 03:36:00,
2013-10-20 23:41:00,48.0,38.7,30.10,NNE,16,0.0,0.0,70,0.00,NA,NA,0.00,WeatherLink_script,2013-10-21 03:41:00,
2013-10-20 23:46:00,47.9,39.0,30.10,NNE,16,0.0,0.0,71,0.00,NA,NA,0.00,WeatherLink_script,2013-10-21 03:46:00,
2013-10-20 23:51:00,47.8,38.9,30.10,NNE,16,0.0,0.0,71,0.00,NA,NA,0.00,WeatherLink_script,2013-10-21 03:51:00,
2013-10-20 23:56:00,47.6,38.7,30.10,NNE,16,0.0,0.0,71,0.00,NA,NA,0.00,WeatherLink_script,2013-10-21 03:56:00,